Time;durP1;ratioP1;P1;durP2;ratioP2;P2;SDS_P1;SDS_P2;PMS_P1;PMS_P2;Temp;Humidity;BMP_temperature;BMP_pressure;BME280_temperature;BME280_humidity;BME280_pressure;Samples;Min_cycle;Max_cycle;Signal;HPM_P1;HPM_P2
2022/03/02 00:02:21;;;;;;;;;;;;;;;4.22;100.00;102842.34;5036580;28;19928;-70
2022/03/02 00:04:46;;;;;;;;;;;;;;;4.22;100.00;102846.75;5034920;28;19921;-70
2022/03/02 00:07:11;;;;;;;;;;;;;;;4.22;100.00;102849.38;5037263;28;19987;-70
2022/03/02 00:09:37;;;;;;;;;;;;;;;4.31;100.00;102854.78;5036198;28;19944;-70
2022/03/02 00:12:02;;;;;;;;;;;;;;;4.27;100.00;102860.88;5036260;28;19917;-70
2022/03/02 00:14:27;;;;;;;;;;;;;;;4.34;100.00;102866.22;5036238;28;19917;-70
2022/03/02 00:16:52;;;;;;;;;;;;;;;4.34;100.00;102855.72;5036118;28;19923;-71
2022/03/02 00:19:18;;;;;;;;;;;;;;;4.42;100.00;102866.34;5036173;28;19924;-70
2022/03/02 00:21:43;;;;;;;;;;;;;;;4.37;100.00;102868.00;5035005;28;20305;-70
2022/03/02 00:24:08;;;;;;;;;;;;;;;4.42;100.00;102858.44;5036012;28;19959;-70
2022/03/02 00:26:34;;;;;;;;;;;;;;;4.46;100.00;102863.78;5036024;28;19979;-70
2022/03/02 00:28:59;;;;;;;;;;;;;;;4.47;100.00;102854.13;5036021;28;19917;-70
2022/03/02 00:31:25;;;;;;;;;;;;;;;4.44;100.00;102856.72;5036287;28;19979;-70
2022/03/02 00:33:50;;;;;;;;;;;;;;;4.52;100.00;102860.34;5035846;28;19921;-70
2022/03/02 00:36:15;;;;;;;;;;;;;;;4.56;100.00;102867.41;5036070;28;19924;-70
2022/03/02 00:38:41;;;;;;;;;;;;;;;4.48;100.00;102862.06;5051180;28;19925;-70
2022/03/02 00:41:06;;;;;;;;;;;;;;;4.46;100.00;102862.88;5034408;28;20322;-70
2022/03/02 00:43:31;;;;;;;;;;;;;;;4.51;100.00;102863.81;5035586;28;19918;-70
2022/03/02 00:45:56;;;;;;;;;;;;;;;4.48;100.00;102866.41;5035455;28;19917;-70
2022/03/02 00:48:22;;;;;;;;;;;;;;;4.56;100.00;102870.94;5035368;28;19944;-70
2022/03/02 00:50:47;;;;;;;;;;;;;;;4.60;100.00;102867.47;5035479;28;20392;-70
2022/03/02 00:53:13;;;;;;;;;;;;;;;4.64;100.00;102858.78;5035490;28;19917;-70
2022/03/02 00:55:38;;;;;;;;;;;;;;;4.66;100.00;102851.75;5035811;28;19984;-70
2022/03/02 00:58:05;;;;;;;;;;;;;;;4.62;100.00;102844.69;5035569;28;19917;-70
2022/03/02 01:00:30;;;;;;;;;;;;;;;4.66;100.00;102849.13;5035960;28;19924;-70
2022/03/02 01:02:56;;;;;;;;;;;;;;;4.65;100.00;102846.47;5035695;28;20004;-70
2022/03/02 01:05:21;;;;;;;;;;;;;;;4.64;100.00;102840.34;5035747;28;19929;-70
2022/03/02 01:07:46;;;;;;;;;;;;;;;4.71;100.00;102839.56;5050707;28;20269;-70
2022/03/02 01:10:11;;;;;;;;;;;;;;;4.83;100.00;102835.31;5035204;28;19921;-70
2022/03/02 01:12:37;;;;;;;;;;;;;;;4.75;100.00;102827.31;5035414;28;19980;-70
2022/03/02 01:15:03;;;;;;;;;;;;;;;4.72;100.00;102816.75;5035046;28;19917;-70
2022/03/02 01:17:28;;;;;;;;;;;;;;;4.71;100.00;102815.00;5035030;28;19924;-70
2022/03/02 01:19:53;;;;;;;;;;;;;;;4.66;100.00;102808.78;5034973;28;19917;-70
2022/03/02 01:22:19;;;;;;;;;;;;;;;4.69;100.00;102811.47;5034880;28;19917;-70
2022/03/02 01:24:44;;;;;;;;;;;;;;;4.66;100.00;102808.78;5034724;28;19917;-70
2022/03/02 01:27:09;;;;;;;;;;;;;;;4.69;100.00;102819.34;5035498;28;20285;-70
2022/03/02 01:29:35;;;;;;;;;;;;;;;4.69;100.00;102814.09;5033321;28;19943;-70
2022/03/02 01:32:01;;;;;;;;;;;;;;;4.68;100.00;102804.41;5034881;28;19928;-70
2022/03/02 01:34:26;;;;;;;;;;;;;;;4.68;100.00;102810.56;5049691;28;20362;-70
2022/03/02 01:36:52;;;;;;;;;;;;;;;4.75;100.00;102806.25;5034828;28;19917;-70
2022/03/02 01:39:17;;;;;;;;;;;;;;;4.66;100.00;102796.50;5033241;28;20367;-70
2022/03/02 01:41:42;;;;;;;;;;;;;;;4.69;100.00;102796.56;5034578;28;19964;-70
2022/03/02 01:44:08;;;;;;;;;;;;;;;4.65;100.00;102793.84;5034770;28;19931;-70
2022/03/02 01:46:34;;;;;;;;;;;;;;;4.63;100.00;102785.06;5035359;28;20362;-70
2022/03/02 01:48:59;;;;;;;;;;;;;;;4.60;100.00;102782.41;5034217;28;19917;-70
2022/03/02 01:51:24;;;;;;;;;;;;;;;4.61;100.00;102778.91;5034539;28;20420;-70
2022/03/02 01:53:49;;;;;;;;;;;;;;;4.59;100.00;102784.16;5034785;28;20004;-70
2022/03/02 01:56:15;;;;;;;;;;;;;;;4.65;100.00;102781.56;5050002;28;19917;-70
2022/03/02 01:58:40;;;;;;;;;;;;;;;4.61;100.00;102773.63;5034226;28;20317;-70
2022/03/02 02:01:06;;;;;;;;;;;;;;;4.63;100.00;102774.53;5033621;28;19919;-70
2022/03/02 02:03:33;;;;;;;;;;;;;;;4.60;100.00;102770.09;5034143;28;20099;-70
2022/03/02 02:05:58;;;;;;;;;;;;;;;4.61;100.00;102773.63;5034992;28;19963;-70
2022/03/02 02:08:24;;;;;;;;;;;;;;;4.64;100.00;102774.56;5033829;28;20340;-70
2022/03/02 02:10:50;;;;;;;;;;;;;;;4.63;100.00;102771.91;5034081;28;20365;-70
2022/03/02 02:13:15;;;;;;;;;;;;;;;4.61;100.00;102760.47;5032728;28;19967;-70
2022/03/02 02:15:41;;;;;;;;;;;;;;;4.58;100.00;102763.06;5033825;28;19921;-70
2022/03/02 02:18:06;;;;;;;;;;;;;;;4.63;100.00;102758.75;5033691;28;19956;-70
2022/03/02 02:20:38;;;;;;;;;;;;;;;4.65;100.00;102752.63;5033984;28;19924;-70
2022/03/02 02:23:04;;;;;;;;;;;;;;;4.71;100.00;102744.81;5034218;28;19947;-70
2022/03/02 02:25:29;;;;;;;;;;;;;;;4.68;100.00;102746.50;5034269;28;19924;-70
2022/03/02 02:27:55;;;;;;;;;;;;;;;4.78;100.00;102739.59;5033759;28;20015;-70
2022/03/02 02:30:21;;;;;;;;;;;;;;;4.76;100.00;102733.47;5033996;28;19928;-70
2022/03/02 02:32:46;;;;;;;;;;;;;;;4.74;100.00;102731.66;5033954;28;20011;-70
2022/03/02 02:35:12;;;;;;;;;;;;;;;4.74;100.00;102723.78;5033825;28;19928;-70
2022/03/02 02:37:45;;;;;;;;;;;;;;;4.79;100.00;102723.81;5030082;28;19924;-70
2022/03/02 02:40:12;;;;;;;;;;;;;;;4.79;100.00;102718.56;5029552;28;20030;-70
2022/03/02 02:42:52;;;;;;;;;;;;;;;4.74;100.00;102712.38;5014017;28;19918;-70
2022/03/02 02:45:20;;;;;;;;;;;;;;;4.81;100.00;102711.56;5020837;28;19948;-69
2022/03/02 02:47:45;;;;;;;;;;;;;;;4.79;100.00;102705.41;5032391;28;19923;-70
2022/03/02 02:50:19;;;;;;;;;;;;;;;4.81;100.00;102703.66;5032164;28;20008;-70
2022/03/02 02:52:44;;;;;;;;;;;;;;;4.81;100.00;102689.66;5034060;28;19923;-69
2022/03/02 02:55:10;;;;;;;;;;;;;;;4.75;100.00;102690.44;5033389;28;20423;-70
2022/03/02 02:57:35;;;;;;;;;;;;;;;4.75;100.00;102690.44;5032608;28;19948;-70
2022/03/02 03:00:01;;;;;;;;;;;;;;;4.78;100.00;102681.69;5032171;28;19975;-70
2022/03/02 03:02:26;;;;;;;;;;;;;;;4.70;100.00;102682.50;5033366;28;20432;-70
2022/03/02 03:04:51;;;;;;;;;;;;;;;4.69;100.00;102683.41;5033456;28;19943;-69
2022/03/02 03:07:16;;;;;;;;;;;;;;;4.69;100.00;102678.13;5032196;28;19940;-70
2022/03/02 03:09:41;;;;;;;;;;;;;;;4.85;100.00;102679.16;5035143;28;19917;-70
2022/03/02 03:12:07;;;;;;;;;;;;;;;4.75;100.00;102674.66;5036021;28;19917;-69
2022/03/02 03:14:32;;;;;;;;;;;;;;;4.69;100.00;102664.97;5037504;28;19917;-70
2022/03/02 03:16:57;;;;;;;;;;;;;;;4.70;100.00;102665.84;5037087;28;19917;-69
2022/03/02 03:19:22;;;;;;;;;;;;;;;4.67;100.00;102676.31;5036979;28;19929;-70
2022/03/02 03:21:48;;;;;;;;;;;;;;;4.63;100.00;102671.91;5036127;28;19917;-69
2022/03/02 03:24:13;;;;;;;;;;;;;;;4.72;100.00;102664.09;5037765;28;19917;-70
2022/03/02 03:26:38;;;;;;;;;;;;;;;4.69;100.00;102664.06;5035914;28;19917;-69
2022/03/02 03:29:04;;;;;;;;;;;;;;;4.64;100.00;102657.88;5036924;28;19917;-69
2022/03/02 03:31:29;;;;;;;;;;;;;;;4.60;100.00;102671.88;5037261;28;19924;-70
2022/03/02 03:33:54;;;;;;;;;;;;;;;4.60;100.00;102666.63;5056012;23;19928;-72
2022/03/02 03:36:19;;;;;;;;;;;;;;;4.66;100.00;102664.91;5037189;28;19925;-74
2022/03/02 03:41:48;;;;;;;;;;;;;;;4.50;100.00;102652.47;5037291;28;20436;-73
2022/03/02 03:44:13;;;;;;;;;;;;;;;4.53;100.00;102656.88;5036841;28;19921;-73
2022/03/02 03:46:38;;;;;;;;;;;;;;;4.48;100.00;102658.56;5036769;28;19976;-73
2022/03/02 03:49:03;;;;;;;;;;;;;;;4.46;100.00;102662.94;5036650;28;19925;-73
2022/03/02 03:51:29;;;;;;;;;;;;;;;4.45;100.00;102651.53;5036696;28;19918;-73
2022/03/02 03:53:54;;;;;;;;;;;;;;;4.46;100.00;102658.56;5018943;28;19925;-73
2022/03/02 03:56:19;;;;;;;;;;;;;;;4.50;100.00;102659.47;5036603;28;19983;-73
2022/03/02 03:58:44;;;;;;;;;;;;;;;4.53;100.00;102656.88;5036574;28;19958;-73
2022/03/02 04:01:10;;;;;;;;;;;;;;;4.46;100.00;102655.03;5036552;28;19952;-73
2022/03/02 04:03:36;;;;;;;;;;;;;;;4.45;100.00;102655.91;5018933;28;19924;-73
2022/03/02 04:06:01;;;;;;;;;;;;;;;4.40;100.00;102654.97;5051995;28;19924;-74
2022/03/02 04:08:27;;;;;;;;;;;;;;;4.38;100.00;102654.09;5038397;28;19924;-74
2022/03/02 04:10:52;;;;;;;;;;;;;;;4.43;100.00;102650.63;5045090;28;19924;-73
2022/03/02 04:13:17;;;;;;;;;;;;;;;4.42;100.00;102645.34;5041721;28;19956;-73
2022/03/02 04:15:42;;;;;;;;;;;;;;;4.36;100.00;102642.66;5026651;28;20374;-73
2022/03/02 04:18:08;;;;;;;;;;;;;;;4.38;100.00;102646.22;5052182;28;19917;-74
2022/03/02 04:20:34;;;;;;;;;;;;;;;4.39;100.00;102638.34;5025627;28;20461;-73
2022/03/02 04:22:59;;;;;;;;;;;;;;;4.39;100.00;102629.53;5034916;28;19921;-73
2022/03/02 04:25:24;;;;;;;;;;;;;;;4.43;100.00;102624.34;5038076;28;20003;-73
2022/03/02 04:27:49;;;;;;;;;;;;;;;4.40;100.00;102626.03;5056009;28;19917;-73
2022/03/02 04:30:15;;;;;;;;;;;;;;;4.31;100.00;102612.78;5037951;28;19924;-73
2022/03/02 04:32:40;;;;;;;;;;;;;;;4.26;100.00;102623.28;5030596;28;19917;-73
2022/03/02 04:35:07;;;;;;;;;;;;;;;4.24;100.00;102616.22;5018219;28;19913;-73
2022/03/02 04:37:32;;;;;;;;;;;;;;;4.19;100.00;102615.31;5037673;28;19924;-73
2022/03/02 04:39:58;;;;;;;;;;;;;;;4.14;100.00;102614.34;5037996;28;19917;-73
2022/03/02 04:42:23;;;;;;;;;;;;;;;4.10;100.00;102618.69;5055786;28;19923;-73
2022/03/02 04:44:48;;;;;;;;;;;;;;;4.11;100.00;102609.06;5037986;28;19924;-73
2022/03/02 04:47:13;;;;;;;;;;;;;;;4.10;100.00;102610.81;5055607;28;20063;-73
2022/03/02 04:52:41;;;;;;;;;;;;;;;4.04;100.00;102602.84;5055816;28;19920;-73
2022/03/02 04:55:07;;;;;;;;;;;;;;;4.03;100.00;102603.72;5037514;28;20292;-73
2022/03/02 04:57:43;;;;;;;;;;;;;;;4.00;100.00;102597.53;5037485;28;19917;-73
2022/03/02 05:00:20;;;;;;;;;;;;;;;3.99;100.00;102607.16;5055346;28;19940;-73
2022/03/02 05:02:46;;;;;;;;;;;;;;;3.99;100.00;102606.28;5047532;28;20402;-73
2022/03/02 05:05:12;;;;;;;;;;;;;;;4.03;100.00;102608.97;5040810;28;20012;-72
2022/03/02 05:07:37;;;;;;;;;;;;;;;4.10;100.00;102604.66;5043395;28;19940;-74
2022/03/02 05:10:03;;;;;;;;;;;;;;;4.07;100.00;102605.50;5043152;28;19917;-74
2022/03/02 05:12:28;;;;;;;;;;;;;;;4.06;100.00;102605.50;5028138;28;20008;-72
2022/03/02 05:14:54;;;;;;;;;;;;;;;4.09;100.00;102601.16;5024907;28;19921;-73
2022/03/02 05:17:19;;;;;;;;;;;;;;;4.09;100.00;102603.78;5043233;28;19976;-74
2022/03/02 05:19:44;;;;;;;;;;;;;;;4.09;100.00;102601.16;5025359;28;19966;-73
2022/03/02 05:22:09;;;;;;;;;;;;;;;4.14;100.00;102604.72;5040365;28;19966;-74
2022/03/02 05:24:35;;;;;;;;;;;;;;;4.11;100.00;102604.66;5028672;28;19917;-73
2022/03/02 05:27:00;;;;;;;;;;;;;;;4.13;100.00;102604.69;5043546;28;19924;-73
2022/03/02 05:29:28;;;;;;;;;;;;;;;4.13;100.00;102605.56;5046349;28;19917;-73
2022/03/02 05:31:53;;;;;;;;;;;;;;;4.18;100.00;102606.53;5040369;28;19921;-74
2022/03/02 05:34:19;;;;;;;;;;;;;;;4.19;100.00;102607.41;5028063;28;19921;-73
2022/03/02 05:36:44;;;;;;;;;;;;;;;4.18;100.00;102605.63;5040816;28;19921;-73
2022/03/02 05:39:09;;;;;;;;;;;;;;;4.18;100.00;102598.63;5032001;28;19917;-73
2022/03/02 05:41:34;;;;;;;;;;;;;;;4.19;100.00;102602.16;5050888;28;20373;-73
2022/03/02 05:44:01;;;;;;;;;;;;;;;4.20;100.00;102603.91;5034845;28;20293;-74
2022/03/02 05:46:26;;;;;;;;;;;;;;;4.23;100.00;102610.09;5017772;28;19917;-73
2022/03/02 05:48:52;;;;;;;;;;;;;;;4.23;100.00;102606.56;5017839;28;19924;-73
2022/03/02 05:51:18;;;;;;;;;;;;;;;4.20;100.00;102604.81;5018257;28;20004;-74
2022/03/02 05:53:43;;;;;;;;;;;;;;;4.28;100.00;102603.13;5038540;28;20050;-74
2022/03/02 05:56:08;;;;;;;;;;;;;;;4.29;100.00;102604.88;5034425;28;19917;-73
2022/03/02 05:58:33;;;;;;;;;;;;;;;4.25;100.00;102608.38;5034356;28;19928;-72
2022/03/02 06:01:00;;;;;;;;;;;;;;;4.29;100.00;102604.00;5034612;28;19924;-74
2022/03/02 06:03:25;;;;;;;;;;;;;;;4.25;100.00;102604.84;5016581;28;19923;-74
2022/03/02 06:05:50;;;;;;;;;;;;;;;4.38;100.00;102614.63;5016645;28;20397;-73
2022/03/02 06:08:16;;;;;;;;;;;;;;;4.29;100.00;102604.88;5016490;28;20277;-73
2022/03/02 06:10:41;;;;;;;;;;;;;;;4.29;100.00;102604.00;5034289;28;20392;-72
2022/03/02 06:13:07;;;;;;;;;;;;;;;4.26;100.00;102607.50;5034510;28;20011;-72
2022/03/02 06:15:32;;;;;;;;;;;;;;;4.26;100.00;102603.97;5034390;28;19917;-74
2022/03/02 06:18:01;;;;;;;;;;;;;;;4.20;100.00;102601.28;5016323;28;19920;-72
2022/03/02 06:20:28;;;;;;;;;;;;;;;4.17;100.00;102593.34;5016149;28;20391;-73
2022/03/02 06:22:54;;;;;;;;;;;;;;;4.19;100.00;102600.38;5034253;28;19925;-72
2022/03/02 06:25:19;;;;;;;;;;;;;;;4.17;100.00;102606.50;5033732;28;19921;-72
2022/03/02 06:27:44;;;;;;;;;;;;;;;4.24;100.00;102595.16;5016025;28;19963;-72
2022/03/02 06:30:10;;;;;;;;;;;;;;;4.23;100.00;102604.81;5015771;28;19917;-73
2022/03/02 06:32:35;;;;;;;;;;;;;;;4.27;100.00;102603.13;5043649;28;20293;-74
2022/03/02 06:35:01;;;;;;;;;;;;;;;4.28;100.00;102604.88;5053508;28;19921;-73
2022/03/02 06:37:26;;;;;;;;;;;;;;;4.24;100.00;102600.44;5030257;28;20374;-73
2022/03/02 06:39:52;;;;;;;;;;;;;;;4.23;100.00;102607.47;5026337;28;19967;-73
2022/03/02 06:42:18;;;;;;;;;;;;;;;4.30;100.00;102605.78;5017606;28;19917;-72
2022/03/02 06:44:48;;;;;;;;;;;;;;;4.33;100.00;102617.19;5043915;28;19924;-73
2022/03/02 06:47:14;;;;;;;;;;;;;;;4.32;100.00;102606.66;5053703;28;19917;-73
2022/03/02 06:49:45;;;;;;;;;;;;;;;4.32;100.00;102615.44;5052483;28;19923;-73
2022/03/02 06:52:11;;;;;;;;;;;;;;;4.37;100.00;102608.50;5038871;28;19917;-74
2022/03/02 06:54:42;;;;;;;;;;;;;;;4.51;100.00;102611.25;5033540;28;19963;-74
2022/03/02 06:57:09;;;;;;;;;;;;;;;4.43;100.00;102619.06;5034189;28;19917;-75
2022/03/02 06:59:37;;;;;;;;;;;;;;;4.52;100.00;102618.28;5016069;28;19921;-75
2022/03/02 07:02:03;;;;;;;;;;;;;;;4.62;100.00;102618.41;5016742;28;20340;-73
2022/03/02 07:04:32;;;;;;;;;;;;;;;4.62;100.00;102618.41;5015721;28;19917;-73
2022/03/02 07:06:58;;;;;;;;;;;;;;;4.74;100.00;102613.22;5033352;28;19917;-76
2022/03/02 07:09:23;;;;;;;;;;;;;;;4.75;100.00;102616.75;5035194;28;20297;-73
2022/03/02 07:11:48;;;;;;;;;;;;;;;4.74;100.00;102607.97;5035435;28;19916;-74
2022/03/02 07:14:15;;;;;;;;;;;;;;;4.75;100.00;102606.22;5051754;28;19990;-75
2022/03/02 07:16:42;;;;;;;;;;;;;;;4.84;100.00;102600.19;5039872;28;19917;-75
2022/03/02 07:19:07;;;;;;;;;;;;;;;5.00;100.00;102604.69;5033370;28;19917;-75
2022/03/02 07:21:33;;;;;;;;;;;;;;;4.93;100.00;102603.78;5018166;28;19928;-73
2022/03/02 07:24:04;;;;;;;;;;;;;;;5.04;100.00;102606.47;5052640;28;19917;-73
2022/03/02 07:26:30;;;;;;;;;;;;;;;5.16;100.00;102610.09;5044835;28;19934;-73
2022/03/02 07:28:56;;;;;;;;;;;;;;;5.27;100.00;102597.88;5034188;28;19921;-76
2022/03/02 07:31:22;;;;;;;;;;;;;;;5.30;100.00;102599.63;5027306;28;20317;-73
2022/03/02 07:33:49;;;;;;;;;;;;;;;5.38;100.00;102595.31;5052325;28;19921;-74
2022/03/02 07:36:18;;;;;;;;;;;;;;;5.55;100.00;102593.66;5052834;28;19924;-74
2022/03/02 07:38:43;;;;;;;;;;;;;;;5.43;100.00;102594.47;5019011;28;20422;-74
2022/03/02 07:41:35;;;;;;;;;;;;;;;5.40;100.00;102601.47;5033037;28;19965;-73
2022/03/02 07:44:01;;;;;;;;;;;;;;;5.45;100.00;102592.72;5031929;28;19967;-74
2022/03/02 07:46:29;;;;;;;;;;;;;;;5.54;100.00;102595.41;5047562;28;19956;-73
2022/03/02 07:48:54;;;;;;;;;;;;;;;5.59;100.00;102593.69;5053092;28;19927;-73
2022/03/02 07:51:20;;;;;;;;;;;;;;;5.53;100.00;102600.69;5049383;28;19917;-75
2022/03/02 07:53:53;;;;;;;;;;;;;;;5.57;100.00;102603.34;5038619;28;20420;-74
2022/03/02 07:56:19;;;;;;;;;;;;;;;5.50;100.00;102606.81;5035658;28;20011;-74
2022/03/02 07:58:45;;;;;;;;;;;;;;;5.49;100.00;102599.78;5018662;28;19925;-74
2022/03/02 08:01:17;;;;;;;;;;;;;;;5.52;100.00;102605.06;5036423;28;19917;-74
2022/03/02 08:03:43;;;;;;;;;;;;;;;5.60;100.00;102600.72;5041778;28;20240;-76
2022/03/02 08:06:09;;;;;;;;;;;;;;;5.42;100.00;102600.59;5042317;28;19928;-74
2022/03/02 08:08:35;;;;;;;;;;;;;;;5.42;100.00;102597.97;5056561;28;19921;-74
2022/03/02 08:11:00;;;;;;;;;;;;;;;5.61;100.00;102584.03;5056132;28;19917;-73
2022/03/02 08:13:28;;;;;;;;;;;;;;;5.67;100.00;102591.94;5056134;28;19917;-74
2022/03/02 08:15:54;;;;;;;;;;;;;;;5.67;100.00;102591.94;5056352;28;19920;-73
2022/03/02 08:18:19;;;;;;;;;;;;;;;5.60;100.00;102586.66;5045818;28;20400;-73
2022/03/02 08:20:47;;;;;;;;;;;;;;;5.47;100.00;102580.44;5046070;28;20297;-73
2022/03/02 08:23:12;;;;;;;;;;;;;;;5.42;100.00;102586.56;5036106;28;19917;-74
2022/03/02 08:25:38;;;;;;;;;;;;;;;5.58;100.00;102591.03;5035950;28;19923;-73
2022/03/02 08:28:05;;;;;;;;;;;;;;;5.86;100.00;102595.63;5041402;28;20270;-75
2022/03/02 08:30:32;;;;;;;;;;;;;;;5.80;100.00;102593.78;5075862;28;19916;-73
2022/03/02 08:33:00;;;;;;;;;;;;;;;5.80;100.00;102591.16;5069263;28;19928;-73
2022/03/02 08:35:25;;;;;;;;;;;;;;;5.87;100.00;102593.00;5035587;28;19917;-73
2022/03/02 08:37:50;;;;;;;;;;;;;;;5.83;100.00;102593.81;5023453;28;20412;-74
2022/03/02 08:40:16;;;;;;;;;;;;;;;5.79;100.00;102589.41;5037162;28;19928;-73
2022/03/02 08:42:41;;;;;;;;;;;;;;;5.94;100.00;102573.66;5035827;28;19917;-72
2022/03/02 08:45:07;;;;;;;;;;;;;;;5.86;100.00;102578.03;5035675;28;19917;-74
2022/03/02 08:47:34;;;;;;;;;;;;;;;6.12;100.00;102576.38;5036930;28;20378;-74
2022/03/02 08:49:59;;;;;;;;;;;;;;;6.04;100.00;102570.19;5040498;28;20343;-73
2022/03/02 08:52:25;;;;;;;;;;;;;;;5.98;100.00;102564.91;5036042;28;19959;-73
2022/03/02 08:54:50;;;;;;;;;;;;;;;6.14;100.00;102568.47;5039256;28;20370;-73
2022/03/02 08:57:17;;;;;;;;;;;;;;;6.04;100.00;102564.91;5038793;28;19925;-73
2022/03/02 08:59:43;;;;;;;;;;;;;;;6.21;100.00;102557.03;5034746;28;20381;-73
2022/03/02 09:02:08;;;;;;;;;;;;;;;6.07;100.00;102561.38;5040316;28;19917;-74
2022/03/02 09:04:35;;;;;;;;;;;;;;;6.03;100.00;102563.16;5035178;28;19921;-73
2022/03/02 09:07:02;;;;;;;;;;;;;;;6.28;100.00;102556.19;5016776;28;19917;-72
2022/03/02 09:09:28;;;;;;;;;;;;;;;6.25;100.00;102550.91;5035781;28;19924;-73
2022/03/02 09:11:55;;;;;;;;;;;;;;;6.31;100.00;102553.53;5036401;28;19921;-78
2022/03/02 09:14:20;;;;;;;;;;;;;;;6.37;100.00;102553.56;5025238;28;19917;-73
2022/03/02 09:16:46;;;;;;;;;;;;;;;6.41;100.00;102550.06;5055336;28;19924;-73
2022/03/02 09:19:11;;;;;;;;;;;;;;;6.43;100.00;102550.91;5036753;28;19924;-73
2022/03/02 09:21:37;;;;;;;;;;;;;;;6.64;100.00;102547.41;5054813;28;20015;-72
2022/03/02 09:24:02;;;;;;;;;;;;;;;6.64;100.00;102537.75;5054704;28;19916;-73
2022/03/02 09:26:27;;;;;;;;;;;;;;;6.61;100.00;102543.03;5035888;28;21664;-72
2022/03/02 09:28:53;;;;;;;;;;;;;;;6.70;100.00;102539.50;5033126;28;19924;-74
2022/03/02 09:31:22;;;;;;;;;;;;;;;6.85;100.00;102539.50;5022259;28;19921;-73
2022/03/02 09:33:54;;;;;;;;;;;;;;;6.85;100.00;102536.88;5011534;28;19922;-74
2022/03/02 09:36:21;;;;;;;;;;;;;;;6.97;100.00;102531.56;5004641;28;19918;-75
2022/03/02 09:38:48;;;;;;;;;;;;;;;6.98;100.00;102533.34;5001744;28;19953;-73
2022/03/02 09:41:17;;;;;;;;;;;;;;;7.11;100.00;102533.31;5000368;28;20064;-73
2022/03/02 09:43:46;;;;;;;;;;;;;;;7.30;100.00;102532.41;5010732;28;19922;-73
2022/03/02 09:46:16;;;;;;;;;;;;;;;7.47;100.00;102524.41;4996676;28;19917;-73
2022/03/02 09:48:47;;;;;;;;;;;;;;;7.43;100.00;102523.56;5013337;28;19918;-73
2022/03/02 09:51:17;;;;;;;;;;;;;;;7.69;100.00;102526.09;5015083;28;20044;-73
2022/03/02 09:53:47;;;;;;;;;;;;;;;7.72;100.00;102521.66;5014430;28;19913;-73
2022/03/02 09:56:14;;;;;;;;;;;;;;;8.01;100.00;102515.34;5005795;28;19918;-73
2022/03/02 09:58:39;;;;;;;;;;;;;;;8.13;100.00;102524.09;5009656;28;19918;-73
2022/03/02 10:01:08;;;;;;;;;;;;;;;8.15;100.00;102519.69;5005460;28;19925;-73
2022/03/02 10:03:35;;;;;;;;;;;;;;;8.10;100.00;102524.13;5006253;28;20048;-73
2022/03/02 10:06:02;;;;;;;;;;;;;;;8.30;100.00;102510.81;5010234;28;19917;-73
2022/03/02 10:08:32;;;;;;;;;;;;;;;8.19;100.00;102517.91;5000706;28;19918;-73
2022/03/02 10:11:02;;;;;;;;;;;;;;;8.25;100.00;102518.78;4994493;28;19918;-73
2022/03/02 10:13:27;;;;;;;;;;;;;;;8.48;100.00;102519.47;4994957;28;20272;-73
2022/03/02 10:15:54;;;;;;;;;;;;;;;8.48;100.00;102514.19;4994941;28;19972;-73
2022/03/02 10:18:20;;;;;;;;;;;;;;;8.43;100.00;102513.34;4994434;28;19917;-73
2022/03/02 10:20:49;;;;;;;;;;;;;;;8.49;100.00;102504.47;4994418;28;20013;-73
2022/03/02 10:23:22;;;;;;;;;;;;;;;8.51;100.00;102511.50;4994669;28;19926;-73
2022/03/02 10:25:56;;;;;;;;;;;;;;;8.49;100.00;102512.44;5005480;28;19921;-73
2022/03/02 10:28:25;;;;;;;;;;;;;;;8.41;100.00;102514.25;5001868;28;19918;-73
2022/03/02 10:31:02;;;;;;;;;;;;;;;8.48;100.00;102508.00;5003309;28;20341;-73
2022/03/02 10:33:31;;;;;;;;;;;;;;;8.30;100.00;102505.50;5015928;28;19936;-73
2022/03/02 10:36:08;;;;;;;;;;;;;;;8.50;100.00;102498.28;5053531;28;19974;-73
2022/03/02 10:38:53;;;;;;;;;;;;;;;8.58;100.00;102502.66;5047642;28;19917;-73
2022/03/02 10:41:20;;;;;;;;;;;;;;;8.89;100.00;102495.28;5032811;28;19917;-73
2022/03/02 10:43:53;;;;;;;;;;;;;;;8.81;100.00;102494.47;5033489;28;20063;-73
2022/03/02 10:46:21;;;;;;;;;;;;;;;8.97;100.00;102494.34;5032032;28;19924;-73
2022/03/02 10:48:54;;;;;;;;;;;;;;;9.11;100.00;102484.47;5036188;28;19970;-73
2022/03/02 10:51:20;;;;;;;;;;;;;;;9.31;100.00;102485.13;5044643;28;19921;-73
2022/03/02 10:53:50;;;;;;;;;;;;;;;9.53;100.00;102487.53;5041055;28;19924;-73
2022/03/02 10:56:17;;;;;;;;;;;;;;;9.49;100.00;102478.72;5021106;28;19917;-72
2022/03/02 10:58:45;;;;;;;;;;;;;;;9.75;100.00;102478.41;5028676;28;19998;-75
2022/03/02 11:01:11;;;;;;;;;;;;;;;9.90;100.00;102486.13;5053798;28;19917;-72
2022/03/02 11:03:37;;;;;;;;;;;;;;;10.15;100.00;102491.13;5047231;28;19917;-73
2022/03/02 11:06:03;;;;;;;;;;;;;;;10.58;100.00;102476.28;5033454;28;19940;-72
2022/03/02 11:08:29;;;;;;;;;;;;;;;10.67;100.00;102477.88;5041473;28;19918;-72
2022/03/02 11:10:55;;;;;;;;;;;;;;;11.56;100.00;102485.03;5041148;28;19927;-73
2022/03/02 11:13:21;;;;;;;;;;;;;;;12.71;100.00;102485.94;5044015;28;19916;-74
2022/03/02 11:15:50;;;;;;;;;;;;;;;13.71;100.00;102479.59;5022186;28;19921;-80
2022/03/02 11:18:19;;;;;;;;;;;;;;;15.02;100.00;102475.31;5043800;28;19917;-72
2022/03/02 11:21:01;;;;;;;;;;;;;;;15.37;100.00;102471.38;5041072;28;19921;-75
2022/03/02 11:23:26;;;;;;;;;;;;;;;16.32;100.00;102467.69;5044739;28;20019;-73
2022/03/02 11:25:53;;;;;;;;;;;;;;;16.76;100.00;102477.47;5039632;28;20381;-73
2022/03/02 11:28:22;;;;;;;;;;;;;;;17.27;100.00;102474.34;5025386;28;19921;-75
2022/03/02 11:30:55;;;;;;;;;;;;;;;17.83;100.00;102473.53;5044875;28;19964;-73
2022/03/02 11:33:22;;;;;;;;;;;;;;;18.57;100.00;102469.94;5045111;28;20011;-72
2022/03/02 11:35:47;;;;;;;;;;;;;;;18.66;100.00;102461.38;5057026;28;19982;-72
2022/03/02 11:38:17;;;;;;;;;;;;;;;18.40;100.00;102460.94;5047789;28;20406;-72
2022/03/02 11:43:45;;;;;;;;;;;;;;;18.77;100.00;102453.63;5036576;28;19959;-72
2022/03/02 11:46:11;;;;;;;;;;;;;;;19.49;100.00;102454.31;5040842;28;19950;-71
2022/03/02 11:48:41;;;;;;;;;;;;;;;19.50;100.00;102450.66;5039066;28;19917;-71
2022/03/02 11:51:08;;;;;;;;;;;;;;;18.70;100.00;102457.59;5050030;28;19917;-73
2022/03/02 11:53:39;;;;;;;;;;;;;;;19.48;100.00;102456.13;5049013;28;20015;-74
2022/03/02 11:56:05;;;;;;;;;;;;;;;19.59;100.00;102455.53;5032844;28;20020;-71
2022/03/02 11:58:51;;;;;;;;;;;;;;;20.74;100.00;102447.09;5050169;28;19924;-73
2022/03/02 12:01:16;;;;;;;;;;;;;;;20.73;100.00;102440.84;5053700;28;19923;-72
2022/03/02 12:03:53;;;;;;;;;;;;;;;21.27;100.00;102445.63;5044864;28;20003;-71
2022/03/02 12:06:19;;;;;;;;;;;;;;;21.31;100.00;102435.50;5047748;28;19956;-71
2022/03/02 12:08:49;;;;;;;;;;;;;;;22.04;100.00;102439.84;5046823;28;19928;-71
2022/03/02 12:11:21;;;;;;;;;;;;;;;21.57;100.00;102442.84;5044372;28;19921;-72
2022/03/02 12:14:05;;;;;;;;;;;;;;;22.42;100.00;102432.75;5048208;28;19921;-72
2022/03/02 12:16:39;;;;;;;;;;;;;;;22.68;100.00;102421.06;5045881;28;19916;-74
2022/03/02 12:19:05;;;;;;;;;;;;;;;23.50;100.00;102425.19;5034186;28;20369;-73
2022/03/02 12:21:30;;;;;;;;;;;;;;;22.67;100.00;102417.50;5019905;28;19982;-73
2022/03/02 12:23:59;;;;;;;;;;;;;;;24.08;100.00;102419.09;5036000;28;20378;-73
2022/03/02 12:26:24;;;;;;;;;;;;;;;24.33;85.97;102418.16;5035823;28;20015;-73
2022/03/02 12:28:53;;;;;;;;;;;;;;;24.60;91.08;102414.19;5040201;28;19971;-73
2022/03/02 12:31:27;;;;;;;;;;;;;;;26.00;73.87;102416.56;5050075;28;19940;-73
2022/03/02 12:33:58;;;;;;;;;;;;;;;25.69;77.77;102419.19;5050265;28;19921;-73
2022/03/02 12:36:24;;;;;;;;;;;;;;;24.96;80.45;102410.53;5041982;28;19924;-73
2022/03/02 12:38:50;;;;;;;;;;;;;;;24.59;85.53;102406.16;5044440;28;19918;-73
2022/03/02 12:41:15;;;;;;;;;;;;;;;23.86;99.80;102389.94;5038294;28;19939;-73
2022/03/02 12:43:40;;;;;;;;;;;;;;;25.13;91.51;102402.78;5046264;28;20031;-73